createdAt,value
2022-12-18T00:01:25.263Z,57.97
2022-12-18T00:03:53.176Z,69.28
2022-12-18T00:06:20.717Z,70.65
2022-12-18T00:08:47.243Z,66.82
2022-12-18T00:11:19.611Z,63.35
2022-12-18T00:13:46.377Z,61.13
2022-12-18T00:16:15.838Z,67.75
2022-12-18T00:18:43.095Z,66.18
2022-12-18T00:21:12.392Z,68.03
2022-12-18T00:23:40.850Z,60.33
2022-12-18T00:26:12.921Z,59.58
2022-12-18T00:28:42.812Z,69.20
2022-12-18T00:31:12.898Z,57.78
2022-12-18T00:33:39.911Z,77.30
2022-12-18T00:36:15.828Z,64.47
2022-12-18T00:38:42.832Z,71.30
2022-12-18T00:41:12.195Z,77.68
2022-12-18T00:43:39.972Z,68.82
2022-12-18T00:46:07.207Z,61.00
2022-12-18T00:48:33.845Z,68.43
2022-12-18T00:51:00.292Z,72.07
2022-12-18T00:53:26.788Z,64.78
2022-12-18T00:55:53.215Z,66.47
2022-12-18T00:58:19.745Z,68.45
2022-12-18T01:00:46.230Z,72.18
2022-12-18T01:03:15.983Z,68.80
2022-12-18T01:05:44.357Z,68.20
2022-12-18T01:08:11.810Z,67.95
2022-12-18T01:10:41.338Z,73.43
2022-12-18T01:13:07.833Z,68.97
2022-12-18T01:15:34.230Z,77.53
2022-12-18T01:18:00.686Z,64.85
2022-12-18T01:20:27.218Z,87.25
2022-12-18T01:22:53.704Z,85.70
2022-12-18T01:25:20.142Z,70.03
2022-12-18T01:27:46.598Z,83.45
2022-12-18T01:30:13.165Z,74.32
2022-12-18T01:32:39.661Z,75.20
2022-12-18T01:35:06.896Z,79.55
2022-12-18T01:37:33.449Z,77.28
2022-12-18T01:39:59.909Z,75.45
2022-12-18T01:42:26.364Z,82.68
2022-12-18T01:45:00.523Z,74.30
2022-12-18T01:47:29.579Z,70.85
2022-12-18T01:49:57.861Z,61.38
2022-12-18T01:52:27.020Z,68.43
2022-12-18T01:54:54.096Z,56.40
2022-12-18T01:57:21.494Z,71.57
2022-12-18T01:59:52.753Z,64.07
2022-12-18T02:02:20.702Z,63.23
2022-12-18T02:04:49.547Z,61.70
2022-12-18T02:07:24.412Z,77.03
2022-12-18T02:10:13.709Z,71.82
2022-12-18T02:12:53.595Z,61.08
2022-12-18T02:15:31.968Z,58.50
2022-12-18T02:18:12.285Z,63.55
2022-12-18T02:20:48.855Z,65.47
2022-12-18T02:23:43.945Z,63.50
2022-12-18T02:26:19.471Z,65.47
2022-12-18T02:29:01.358Z,60.22
2022-12-18T02:31:35.433Z,57.13
2022-12-18T02:34:05.746Z,76.03
2022-12-18T02:36:41.258Z,64.82
2022-12-18T02:39:11.459Z,48.00
2022-12-18T02:41:43.568Z,51.75
2022-12-18T02:44:13.185Z,65.97
2022-12-18T02:46:53.451Z,54.38
2022-12-18T02:49:40.998Z,65.03
2022-12-18T02:52:54.591Z,59.65
2022-12-18T02:55:48.226Z,60.22
2022-12-18T02:58:27.355Z,60.85
2022-12-18T03:01:25.438Z,65.38
2022-12-18T03:03:58.640Z,59.80
2022-12-18T03:06:30.896Z,69.57
2022-12-18T03:09:05.095Z,62.28
2022-12-18T03:11:35.230Z,64.15
2022-12-18T03:14:02.847Z,57.35
2022-12-18T03:16:32.082Z,67.15
2022-12-18T03:19:09.898Z,72.90
2022-12-18T03:21:48.768Z,61.95
2022-12-18T03:24:19.837Z,62.40
2022-12-18T03:26:51.711Z,60.30
2022-12-18T03:29:30.749Z,61.20
2022-12-18T03:32:04.508Z,61.70
2022-12-18T03:34:36.303Z,62.25
2022-12-18T03:37:06.885Z,57.90
2022-12-18T03:39:35.632Z,62.45
2022-12-18T03:42:16.413Z,69.47
2022-12-18T03:45:10.691Z,62.40
2022-12-18T03:48:02.439Z,66.28
2022-12-18T03:50:39.283Z,62.33
2022-12-18T03:53:15.748Z,54.85
2022-12-18T03:55:46.342Z,62.00
2022-12-18T03:58:18.507Z,53.50
2022-12-18T04:00:58.780Z,56.85
2022-12-18T04:03:26.936Z,61.22
2022-12-18T04:05:56.246Z,70.57
2022-12-18T04:08:24.817Z,69.15
2022-12-18T04:11:00.696Z,67.55
2022-12-18T04:13:34.890Z,61.90
2022-12-18T04:16:03.676Z,70.20
2022-12-18T04:18:30.735Z,59.33
2022-12-18T04:20:57.794Z,61.38
2022-12-18T04:23:25.063Z,53.15
2022-12-18T04:25:52.114Z,64.63
2022-12-18T04:28:31.197Z,60.50
2022-12-18T04:30:57.990Z,61.25
2022-12-18T04:33:24.547Z,65.25
2022-12-18T04:35:51.103Z,63.80
2022-12-18T04:38:17.844Z,58.75
2022-12-18T04:40:45.363Z,57.58
2022-12-18T04:43:20.706Z,52.25
2022-12-18T04:45:47.179Z,51.50
2022-12-18T04:48:13.589Z,47.30
2022-12-18T04:50:40.089Z,51.40
2022-12-18T04:53:07.449Z,47.63
2022-12-18T04:55:33.941Z,46.05
2022-12-18T04:58:00.341Z,53.28
2022-12-18T05:00:26.931Z,51.50
2022-12-18T05:02:54.138Z,44.35
2022-12-18T05:05:20.682Z,46.25
2022-12-18T05:07:47.136Z,45.08
2022-12-18T05:10:13.584Z,47.78
2022-12-18T05:12:40.049Z,43.33
2022-12-18T05:15:07.224Z,45.90
2022-12-18T05:17:33.635Z,50.78
2022-12-18T05:20:00.107Z,45.63
2022-12-18T05:22:26.536Z,46.75
2022-12-18T05:24:52.986Z,41.83
2022-12-18T05:27:19.447Z,47.88
2022-12-18T05:29:45.920Z,40.28
2022-12-18T05:32:12.364Z,40.28
2022-12-18T05:34:38.783Z,46.25
2022-12-18T05:37:05.251Z,41.03
2022-12-18T05:39:31.684Z,45.78
2022-12-18T05:41:58.201Z,49.30
2022-12-18T05:44:24.782Z,49.33
2022-12-18T05:46:51.263Z,47.92
2022-12-18T05:49:17.698Z,44.85
2022-12-18T05:51:44.128Z,44.42
2022-12-18T05:54:10.534Z,40.00
2022-12-18T05:56:36.952Z,41.13
2022-12-18T05:59:03.788Z,40.85
2022-12-18T06:01:30.374Z,40.85
2022-12-18T06:03:57.599Z,40.47
2022-12-18T06:06:26.885Z,42.80
2022-12-18T06:08:54.535Z,39.22
2022-12-18T06:11:27.051Z,44.47
2022-12-18T06:13:58.567Z,45.63
2022-12-18T06:18:51.641Z,42.80
2022-12-18T06:21:18.214Z,49.13
2022-12-18T06:23:44.652Z,44.38
2022-12-18T06:26:13.028Z,40.03
2022-12-18T06:28:39.638Z,47.50
2022-12-18T06:31:07.316Z,49.65
2022-12-18T06:33:35.015Z,41.70
2022-12-18T06:36:04.092Z,45.30
2022-12-18T06:38:31.809Z,47.88
2022-12-18T06:40:58.276Z,41.88
2022-12-18T06:43:24.987Z,43.78
2022-12-18T06:45:51.476Z,45.38
2022-12-18T06:48:17.968Z,41.05
2022-12-18T06:50:44.420Z,44.08
2022-12-18T06:53:10.850Z,40.38
2022-12-18T06:55:37.317Z,40.05
2022-12-18T06:58:04.433Z,46.05
2022-12-18T07:00:30.957Z,46.38
2022-12-18T07:02:57.407Z,46.38
2022-12-18T07:05:23.898Z,41.83
2022-12-18T07:07:50.363Z,46.97
2022-12-18T07:10:16.941Z,46.75
2022-12-18T07:12:43.400Z,45.63
2022-12-18T07:15:10.279Z,45.28
2022-12-18T07:17:36.699Z,42.78
2022-12-18T07:20:03.362Z,44.53
2022-12-18T07:22:29.841Z,43.65
2022-12-18T07:24:56.372Z,41.58
2022-12-18T07:27:23.541Z,43.97
2022-12-18T07:29:50.062Z,45.65
2022-12-18T07:32:16.764Z,40.45
2022-12-18T07:34:43.290Z,43.30
2022-12-18T07:37:09.720Z,42.50
2022-12-18T07:39:36.194Z,44.60
2022-12-18T07:42:02.611Z,41.63
2022-12-18T07:44:29.104Z,41.58
2022-12-18T07:46:55.562Z,43.03
2022-12-18T07:49:22.007Z,36.53
2022-12-18T07:51:48.416Z,42.70
2022-12-18T07:54:14.897Z,37.83
2022-12-18T07:56:41.347Z,44.58
2022-12-18T07:59:07.990Z,42.20
2022-12-18T08:01:34.923Z,39.25
2022-12-18T08:04:01.477Z,40.25
2022-12-18T08:06:27.886Z,37.00
2022-12-18T08:08:55.480Z,40.25
2022-12-18T08:11:23.618Z,37.03
2022-12-18T08:13:50.105Z,34.40
2022-12-18T08:16:16.842Z,41.42
2022-12-18T08:18:43.441Z,37.72
2022-12-18T08:21:11.751Z,34.92
2022-12-18T08:23:42.585Z,30.77
2022-12-18T08:28:36.993Z,28.98
2022-12-18T08:31:03.652Z,27.23
2022-12-18T08:33:30.394Z,36.25
2022-12-18T08:35:56.907Z,26.58
2022-12-18T08:38:23.328Z,27.63
2022-12-18T08:40:49.780Z,29.73
2022-12-18T08:43:16.231Z,30.15
2022-12-18T08:45:42.740Z,29.92
2022-12-18T08:48:09.185Z,26.63
2022-12-18T08:50:35.684Z,30.00
2022-12-18T08:53:02.121Z,29.10
2022-12-18T08:55:28.578Z,25.90
2022-12-18T08:57:54.996Z,26.98
2022-12-18T09:00:21.494Z,26.60
2022-12-18T09:02:48.086Z,24.10
2022-12-18T09:05:15.038Z,29.63
2022-12-18T09:07:41.466Z,27.05
2022-12-18T09:10:08.267Z,28.77
2022-12-18T09:12:34.715Z,27.13
2022-12-18T09:15:01.175Z,21.08
2022-12-18T09:17:27.605Z,23.02
2022-12-18T09:19:54.091Z,20.80
2022-12-18T09:22:20.516Z,23.98
2022-12-18T09:24:46.955Z,23.88
2022-12-18T09:27:13.382Z,26.08
2022-12-18T09:29:39.913Z,22.60
2022-12-18T09:32:06.369Z,25.35
2022-12-18T09:34:32.878Z,24.67
2022-12-18T09:36:59.328Z,23.52
2022-12-18T09:39:25.760Z,23.33
2022-12-18T09:41:55.539Z,18.83
2022-12-18T09:44:33.701Z,25.02
2022-12-18T09:47:15.696Z,21.55
2022-12-18T09:49:47.897Z,20.35
2022-12-18T09:52:26.180Z,21.85
2022-12-18T09:55:01.805Z,21.77
2022-12-18T09:57:34.220Z,18.30
2022-12-18T10:00:12.415Z,25.35
2022-12-18T10:02:38.987Z,22.65
2022-12-18T10:05:08.495Z,25.88
2022-12-18T10:08:00.155Z,23.95
2022-12-18T10:10:49.608Z,20.40
2022-12-18T10:13:47.604Z,18.50
2022-12-18T10:16:20.363Z,21.23
2022-12-18T10:19:05.239Z,24.80
2022-12-18T10:22:13.144Z,21.27
2022-12-18T10:25:07.705Z,21.13
2022-12-18T10:27:34.428Z,20.60
2022-12-18T10:30:09.977Z,21.48
2022-12-18T10:32:36.447Z,22.50
2022-12-18T10:35:02.886Z,26.85
2022-12-18T10:37:30.701Z,23.67
2022-12-18T10:40:22.022Z,27.05
2022-12-18T10:43:12.743Z,23.05
2022-12-18T10:45:39.455Z,22.90
2022-12-18T10:48:18.170Z,23.60
2022-12-18T10:51:10.486Z,25.52
2022-12-18T10:53:37.625Z,23.48
2022-12-18T10:56:06.224Z,24.15
2022-12-18T10:58:38.334Z,21.48
2022-12-18T11:01:17.115Z,24.42
2022-12-18T11:03:46.224Z,24.58
2022-12-18T11:06:19.784Z,25.95
2022-12-18T11:09:00.019Z,25.88
2022-12-18T11:11:26.739Z,24.42
2022-12-18T11:13:58.575Z,23.23
2022-12-18T11:16:25.287Z,25.92
2022-12-18T11:18:51.898Z,18.90
2022-12-18T11:21:18.472Z,26.58
2022-12-18T11:23:51.510Z,26.10
2022-12-18T11:26:18.393Z,24.33
2022-12-18T11:29:09.427Z,29.45
2022-12-18T11:31:35.949Z,30.60
2022-12-18T11:34:28.593Z,23.58
2022-12-18T11:36:58.533Z,23.60
2022-12-18T11:39:38.592Z,27.00
2022-12-18T11:42:46.337Z,23.50
2022-12-18T11:45:13.049Z,29.75
2022-12-18T11:47:53.239Z,28.50
2022-12-18T11:50:24.999Z,34.50
2022-12-18T11:55:31.146Z,32.55
2022-12-18T11:58:09.941Z,26.17
2022-12-18T12:00:48.178Z,28.92
2022-12-18T12:03:20.369Z,26.45
2022-12-18T12:05:54.193Z,31.65
2022-12-18T12:08:42.882Z,29.88
2022-12-18T12:11:21.841Z,29.83
2022-12-18T12:14:06.161Z,30.17
2022-12-18T12:16:44.219Z,30.27
2022-12-18T12:19:28.832Z,32.30
2022-12-18T12:22:11.796Z,32.08
2022-12-18T12:24:57.010Z,31.77
2022-12-18T12:27:49.158Z,30.55
2022-12-18T12:30:36.069Z,33.75
2022-12-18T12:33:17.815Z,30.98
2022-12-18T12:35:53.297Z,34.08
2022-12-18T12:38:28.057Z,33.75
2022-12-18T12:41:06.397Z,32.15
2022-12-18T12:43:50.815Z,33.63
2022-12-18T12:46:21.236Z,34.72
2022-12-18T12:48:52.934Z,32.38
2022-12-18T12:51:35.518Z,38.97
2022-12-18T12:54:06.177Z,32.55
2022-12-18T12:56:49.472Z,37.93
2022-12-18T13:00:01.617Z,31.75
2022-12-18T13:02:31.196Z,29.67
2022-12-18T13:05:13.131Z,34.55
2022-12-18T13:07:59.304Z,35.67
2022-12-18T13:10:27.923Z,33.80
2022-12-18T13:13:17.164Z,36.45
2022-12-18T13:16:10.347Z,36.75
2022-12-18T13:18:38.385Z,31.55
2022-12-18T13:21:23.663Z,35.35
2022-12-18T13:23:50.740Z,38.88
2022-12-18T13:26:17.084Z,40.72
2022-12-18T13:28:46.223Z,35.35
2022-12-18T13:31:14.169Z,36.25
2022-12-18T13:34:23.908Z,39.65
2022-12-18T13:36:34.332Z,36.10
2022-12-18T13:39:26.538Z,40.65
2022-12-18T13:42:05.495Z,34.10
2022-12-18T13:44:40.641Z,40.25
2022-12-18T13:47:37.218Z,34.75
2022-12-18T13:50:40.070Z,36.35
2022-12-18T13:53:06.560Z,39.92
2022-12-18T13:55:33.206Z,37.28
2022-12-18T13:58:13.275Z,45.03
2022-12-18T14:00:44.095Z,44.92
2022-12-18T14:03:22.408Z,42.90
2022-12-18T14:06:06.748Z,41.42
2022-12-18T14:08:38.912Z,41.67
2022-12-18T14:11:07.479Z,44.65
2022-12-18T14:13:42.085Z,41.10
2022-12-18T14:16:14.963Z,47.22
2022-12-18T14:18:53.718Z,44.25
2022-12-18T14:21:29.173Z,41.72
2022-12-18T14:24:21.688Z,45.83
2022-12-18T14:26:50.634Z,51.20
2022-12-18T14:29:31.357Z,44.80
2022-12-18T14:32:17.903Z,48.40
2022-12-18T14:34:52.742Z,46.22
2022-12-18T14:37:23.796Z,43.17
2022-12-18T14:40:03.191Z,34.00
2022-12-18T14:42:33.698Z,46.78
2022-12-18T14:45:40.923Z,45.05
2022-12-18T14:48:19.689Z,43.78
2022-12-18T14:50:59.344Z,40.67
2022-12-18T14:53:59.212Z,43.65
2022-12-18T14:56:36.997Z,44.05
2022-12-18T14:59:25.107Z,45.78
2022-12-18T15:02:24.095Z,42.58
2022-12-18T15:05:18.850Z,45.92
2022-12-18T15:07:51.234Z,45.25
2022-12-18T15:10:21.027Z,49.40
2022-12-18T15:12:58.253Z,46.38
2022-12-18T15:15:33.806Z,43.15
2022-12-18T15:18:09.058Z,41.53
2022-12-18T15:20:50.836Z,45.03
2022-12-18T15:23:22.225Z,41.60
2022-12-18T15:26:09.888Z,38.20
2022-12-18T15:28:46.139Z,42.38
2022-12-18T15:31:12.610Z,39.58
2022-12-18T15:33:44.813Z,35.85
2022-12-18T15:36:14.452Z,35.17
2022-12-18T15:38:41.271Z,32.10
2022-12-18T15:41:14.568Z,32.88
2022-12-18T15:43:41.909Z,28.30
2022-12-18T15:46:17.021Z,36.20
2022-12-18T15:48:54.402Z,29.33
2022-12-18T15:51:36.202Z,30.77
2022-12-18T15:54:05.637Z,36.30
2022-12-18T15:56:32.735Z,32.42
2022-12-18T15:59:00.646Z,36.88
2022-12-18T16:01:30.620Z,31.27
2022-12-18T16:03:58.099Z,30.00
2022-12-18T16:06:24.644Z,33.35
2022-12-18T16:08:51.133Z,29.67
2022-12-18T16:11:28.156Z,26.77
2022-12-18T16:13:54.603Z,24.35
2022-12-18T16:16:21.035Z,25.23
2022-12-18T16:18:47.520Z,30.58
2022-12-18T16:21:13.997Z,24.35
2022-12-18T16:23:40.792Z,29.67
2022-12-18T16:26:08.787Z,24.85
2022-12-18T16:28:35.283Z,26.23
2022-12-18T16:31:01.808Z,23.15
2022-12-18T16:33:28.266Z,22.92
2022-12-18T16:35:54.686Z,23.05
2022-12-18T16:38:21.111Z,24.77
2022-12-18T16:40:47.561Z,27.60
2022-12-18T16:43:14.046Z,24.25
2022-12-18T16:45:41.663Z,24.50
2022-12-18T16:48:08.115Z,27.60
2022-12-18T16:50:37.714Z,18.77
2022-12-18T16:53:04.158Z,23.70
2022-12-18T16:55:30.562Z,21.98
2022-12-18T16:57:57.031Z,20.75
2022-12-18T17:00:23.466Z,22.35
2022-12-18T17:02:50.112Z,22.88
2022-12-18T17:05:16.775Z,23.63
2022-12-18T17:07:43.216Z,21.05
2022-12-18T17:10:09.902Z,21.13
2022-12-18T17:12:36.563Z,18.75
2022-12-18T17:15:03.163Z,21.90
2022-12-18T17:17:29.579Z,19.15
2022-12-18T17:19:56.033Z,19.52
2022-12-18T17:22:22.553Z,19.73
2022-12-18T17:24:49.023Z,17.55
2022-12-18T17:27:15.577Z,17.73
2022-12-18T17:29:47.407Z,22.95
2022-12-18T17:32:14.717Z,15.63
2022-12-18T17:34:41.219Z,18.55
2022-12-18T17:37:08.046Z,18.83
2022-12-18T17:39:34.484Z,17.33
2022-12-18T17:42:01.055Z,21.02
2022-12-18T17:44:27.480Z,19.27
2022-12-18T17:46:54.020Z,21.98
2022-12-18T17:49:21.065Z,21.60
2022-12-18T17:51:47.607Z,20.27
2022-12-18T17:54:14.121Z,20.33
2022-12-18T17:56:40.588Z,21.33
2022-12-18T17:59:07.608Z,22.50
2022-12-18T18:01:36.436Z,21.60
2022-12-18T18:04:05.333Z,23.58
2022-12-18T18:06:31.831Z,23.42
2022-12-18T18:09:00.972Z,21.08
2022-12-18T18:11:27.714Z,19.63
2022-12-18T18:13:54.442Z,20.52
2022-12-18T18:16:20.895Z,18.30
2022-12-18T18:18:47.413Z,19.00
2022-12-18T18:21:13.827Z,17.92
2022-12-18T18:23:42.899Z,17.20
2022-12-18T18:26:11.613Z,22.35
2022-12-18T18:28:38.155Z,19.15
2022-12-18T18:31:06.201Z,19.02
2022-12-18T18:33:33.527Z,18.88
2022-12-18T18:36:00.441Z,18.70
2022-12-18T18:38:27.281Z,21.20
2022-12-18T18:41:04.709Z,22.63
2022-12-18T18:43:31.469Z,19.35
2022-12-18T18:46:03.316Z,19.45
2022-12-18T18:48:33.811Z,19.20
2022-12-18T18:51:07.305Z,20.75
2022-12-18T18:53:38.838Z,19.75
2022-12-18T18:56:45.507Z,18.70
2022-12-18T18:58:55.984Z,20.25
2022-12-18T19:01:23.477Z,17.92
2022-12-18T19:03:50.907Z,20.80
2022-12-18T19:06:20.214Z,22.98
2022-12-18T19:08:47.733Z,18.13
2022-12-18T19:11:14.798Z,19.10
2022-12-18T19:13:41.588Z,21.45
2022-12-18T19:16:09.299Z,20.35
2022-12-18T19:18:36.844Z,24.55
2022-12-18T19:21:05.718Z,20.98
2022-12-18T19:23:34.093Z,23.23
2022-12-18T19:26:26.898Z,24.15
2022-12-18T19:28:51.404Z,22.48
2022-12-18T19:31:24.181Z,20.92
2022-12-18T19:33:51.982Z,21.08
2022-12-18T19:36:21.371Z,22.02
2022-12-18T19:38:49.798Z,21.77
2022-12-18T19:41:17.063Z,19.20
2022-12-18T19:43:45.898Z,20.77
2022-12-18T19:46:16.913Z,19.85
2022-12-18T19:48:44.770Z,22.92
2022-12-18T19:51:17.527Z,20.13
2022-12-18T19:53:44.667Z,22.77
2022-12-18T19:56:14.894Z,20.98
2022-12-18T19:58:41.685Z,18.27
2022-12-18T20:01:16.811Z,25.80
2022-12-18T20:03:48.031Z,19.67
2022-12-18T20:06:30.490Z,20.17
2022-12-18T20:09:00.739Z,18.25
2022-12-18T20:11:29.020Z,20.70
2022-12-18T20:13:55.574Z,26.38
2022-12-18T20:16:23.549Z,20.27
2022-12-18T20:18:50.007Z,17.77
2022-12-18T20:21:20.349Z,20.92
2022-12-18T20:23:46.819Z,22.20
2022-12-18T20:26:15.350Z,21.45
2022-12-18T20:28:41.812Z,18.33
2022-12-18T20:31:10.380Z,16.67
2022-12-18T20:33:40.379Z,22.75
2022-12-18T20:36:10.405Z,21.30
2022-12-18T20:38:37.199Z,20.48
2022-12-18T20:41:07.614Z,18.40
2022-12-18T20:43:34.363Z,17.10
2022-12-18T20:46:02.869Z,19.13
2022-12-18T20:48:30.109Z,15.98
2022-12-18T20:51:17.677Z,17.27
2022-12-18T20:53:45.857Z,17.80
2022-12-18T20:56:20.111Z,13.82
2022-12-18T20:58:51.302Z,16.05
2022-12-18T21:01:22.730Z,15.00
2022-12-18T21:03:50.026Z,13.68
2022-12-18T21:06:19.833Z,17.38
2022-12-18T21:08:46.433Z,15.45
2022-12-18T21:11:21.982Z,17.15
2022-12-18T21:13:49.019Z,13.55
2022-12-18T21:16:15.540Z,18.35
2022-12-18T21:18:42.535Z,17.75
2022-12-18T21:21:08.990Z,18.15
2022-12-18T21:23:35.533Z,17.58
2022-12-18T21:26:34.547Z,18.67
2022-12-18T21:29:03.894Z,21.27
2022-12-18T21:31:34.184Z,18.55
2022-12-18T21:34:02.447Z,16.40
2022-12-18T21:36:29.967Z,21.02
2022-12-18T21:38:57.315Z,19.45
2022-12-18T21:41:25.479Z,18.50
2022-12-18T21:43:52.140Z,16.75
2022-12-18T21:46:18.679Z,18.63
2022-12-18T21:48:45.189Z,26.55
2022-12-18T21:51:11.633Z,17.98
2022-12-18T21:53:38.102Z,20.52
2022-12-18T21:56:04.716Z,18.00
2022-12-18T21:58:31.216Z,21.30
2022-12-18T22:00:57.761Z,24.02
2022-12-18T22:03:24.363Z,19.45
2022-12-18T22:06:08.880Z,22.45
2022-12-18T22:08:36.024Z,22.70
2022-12-18T22:11:06.923Z,22.98
2022-12-18T22:13:33.345Z,26.50
2022-12-18T22:15:59.873Z,26.98
2022-12-18T22:18:26.309Z,27.38
2022-12-18T22:21:04.525Z,24.75
2022-12-18T22:23:31.189Z,24.40
2022-12-18T22:25:58.053Z,28.50
2022-12-18T22:28:24.552Z,24.13
2022-12-18T22:30:51.946Z,25.63
2022-12-18T22:33:25.481Z,26.73
2022-12-18T22:35:51.874Z,28.52
2022-12-18T22:38:18.305Z,22.13
2022-12-18T22:40:44.742Z,21.05
2022-12-18T22:43:11.178Z,22.83
2022-12-18T22:45:38.356Z,19.55
2022-12-18T22:48:05.667Z,22.27
2022-12-18T22:50:32.101Z,20.63
2022-12-18T22:52:58.525Z,22.15
2022-12-18T22:55:24.954Z,24.00
2022-12-18T22:57:51.398Z,22.27
2022-12-18T23:00:19.870Z,23.52
2022-12-18T23:02:55.803Z,25.13
2022-12-18T23:05:26.107Z,22.83
2022-12-18T23:07:52.535Z,22.20
2022-12-18T23:10:19.011Z,21.88
2022-12-18T23:12:45.410Z,20.95
2022-12-18T23:15:12.212Z,19.60
2022-12-18T23:17:39.735Z,20.77
2022-12-18T23:20:06.540Z,19.10
2022-12-18T23:22:32.997Z,16.05
2022-12-18T23:24:59.445Z,18.90
2022-12-18T23:27:25.855Z,17.60
2022-12-18T23:29:52.328Z,27.60
2022-12-18T23:32:20.218Z,20.60
2022-12-18T23:34:46.655Z,23.00
2022-12-18T23:37:18.229Z,16.73
2022-12-18T23:39:51.497Z,13.88
2022-12-18T23:42:17.929Z,14.63
2022-12-18T23:44:45.246Z,16.13
2022-12-18T23:47:11.643Z,14.82
2022-12-18T23:49:38.122Z,16.60
2022-12-18T23:52:07.782Z,15.73
2022-12-18T23:54:34.233Z,12.30
2022-12-18T23:57:00.889Z,13.00
2022-12-18T23:59:27.343Z,13.27
